Flight Track Log - Related Links

Times and Time Zones

All times are in EDT time to prevent confusion due to time zone crossing. See the UAL383 flight status page for this flight to view local times or setup timezone preferences in your user account.

Time Position Orientation Groundspeed Altitude Reporting Facility
EDT Latitude Longitude Course Direction KTS MPH feet Rate Location/Type
Sun 04:10:39 AM 21.3167 -157.8833 105° East 200 230 1,100  Level Honolulu Center
Sun 04:11:39 AM 21.2667 -157.8500 148° Southeast 230 265 3,100 2,050 Climbing Honolulu Center
Sun 04:12:39 AM 21.2000 -157.8167 155° Southeast 260 299 5,200 2,200 Climbing Honolulu Center
Sun 04:13:00 AM 21.2086 -157.5119 108° East  Level FlightAware Approximate
Sun 04:13:39 AM 21.1500 -157.7667 137° Southeast 290 334 7,500  Level Honolulu Center
Sun 04:14:00 AM 21.1792 -157.3752 100° East  Level FlightAware Approximate
Sun 04:14:39 AM 21.1500 -157.6833 90° East 290 334 9,800  Level Honolulu Center
Sun 04:15:00 AM 21.1512 -157.2382 105° East  Level FlightAware Approximate
Sun 04:15:40 AM 21.1667 -157.5833 80° East 340 391 10,800  Level Honolulu Center
Sun 04:16:40 AM 21.1833 -157.4833 80° East 370 426 12,800 1,900 Climbing Honolulu Center
Sun 04:17:40 AM 21.2000 -157.3667 81° East 380 437 14,600 1,800 Climbing Honolulu Center
Sun 04:18:40 AM 21.2333 -157.2500 73° East 400 460 16,400 1,800 Climbing Honolulu Center
Sun 04:19:40 AM 21.2500 -157.1333 81° East 410 472 18,200 1,650 Climbing Honolulu Center
Sun 04:20:40 AM 21.2833 -157.0167 73° East 420 483 19,700 1,350 Climbing Honolulu Center
Sun 04:21:40 AM 21.3000 -156.8833 82° East 440 506 20,900 1,438 Climbing Honolulu Center
Sun 04:22:41 AM 21.3333 -156.7500 75° East 450 518 22,600 1,388 Climbing Honolulu Center
Sun 04:23:41 AM 21.3667 -156.6167 75° East 460 529 23,700 1,150 Climbing Honolulu Center
Sun 04:24:41 AM 21.4000 -156.4833 75° East 470 541 24,900 1,150 Climbing Honolulu Center
Sun 04:25:41 AM 21.4333 -156.3500 75° East 480 552 26,000 1,150 Climbing Honolulu Center
Sun 04:26:41 AM 21.4667 -156.2000 77° East 490 564 27,200 1,100 Climbing Honolulu Center
Sun 04:27:41 AM 21.4833 -156.0500 83° East 490 564 28,200 1,000 Climbing Honolulu Center
Sun 04:28:41 AM 21.5167 -155.9167 75° East 500 575 29,200 1,100 Climbing Honolulu Center
Sun 04:29:41 AM 21.5500 -155.7667 77° East 500 575 30,400 1,050 Climbing Honolulu Center
Sun 04:30:41 AM 21.5833 -155.6167 77° East 510 587 31,300 850 Climbing Honolulu Center
Sun 04:31:41 AM 21.6167 -155.4833 75° East 510 587 32,100 850 Climbing Honolulu Center
Sun 04:32:41 AM 21.6500 -155.3333 77° East 500 575 33,000 450 Climbing Honolulu Center
Sun 04:33:41 AM 21.6833 -155.1833 77° East 510 587 33,000  Level Honolulu Center
Sun 04:34:41 AM 21.7000 -155.0333 83° East 510 587 33,000  Level Honolulu Center
Sun 04:35:42 AM 21.7333 -154.8833 77° East 510 587 33,000  Level Honolulu Center
Sun 04:36:42 AM 21.7667 -154.7333 77° East 510 587 33,000  Level Honolulu Center
Sun 04:37:42 AM 21.8000 -154.5833 77° East 510 587 33,000  Level Honolulu Center
Sun 04:38:42 AM 21.8333 -154.4333 77° East 500 575 33,000  Level Honolulu Center
Sun 04:39:42 AM 21.8667 -154.2833 77° East 500 575 33,000  Level Honolulu Center
Sun 04:40:42 AM 21.9000 -154.1500 75° East 500 575 33,000  Level Honolulu Center
Sun 04:41:42 AM 21.9167 -154.0000 83° East 510 587 33,000  Level Honolulu Center
Sun 04:42:43 AM 21.9500 -153.8500 76° East 500 575 33,000  Level Honolulu Center
Sun 04:43:43 AM 21.9833 -153.7000 76° East 500 575 33,000  Level Honolulu Center
Sun 04:44:43 AM 22.0167 -153.5500 76° East 500 575 33,000  Level Honolulu Center
Sun 04:46:00 AM 22.0509 -153.3684 78° East  Level FlightAware Approximate
Sun 04:53:00 AM 22.2341 -152.3761 79° East  Level FlightAware Approximate
Sun 04:54:00 AM 22.2597 -152.2342 79° East  Level FlightAware Approximate
Sun 04:55:00 AM 22.2853 -152.0921 79° East  Level FlightAware Approximate
Sun 04:56:00 AM 22.3107 -151.9501 79° East  Level FlightAware Approximate
Sun 04:57:00 AM 22.3650 -151.8189 62° Northeast  Level FlightAware Approximate
Sun 04:58:00 AM 22.4277 -151.6910 62° Northeast  Level FlightAware Approximate
Sun 04:59:00 AM 22.4904 -151.5629 62° Northeast  Level FlightAware Approximate
Sun 05:00:00 AM 22.5529 -151.4348 62° Northeast  Level FlightAware Approximate
Sun 05:01:00 AM 22.6153 -151.3065 62° Northeast  Level FlightAware Approximate
Sun 05:02:00 AM 22.6776 -151.1781 62° Northeast  Level FlightAware Approximate
Sun 05:03:00 AM 22.7398 -151.0496 62° Northeast  Level FlightAware Approximate
Sun 05:04:00 AM 22.8020 -150.9210 62° Northeast  Level FlightAware Approximate
Sun 05:05:00 AM 22.8640 -150.7923 62° Northeast  Level FlightAware Approximate
Sun 05:06:00 AM 22.9259 -150.6634 62° Northeast  Level FlightAware Approximate
Sun 05:07:00 AM 22.9877 -150.5344 62° Northeast  Level FlightAware Approximate
Sun 05:08:00 AM 23.0494 -150.4053 63° Northeast  Level FlightAware Approximate
Sun 05:09:00 AM 23.1110 -150.2761 63° Northeast  Level FlightAware Approximate
Sun 05:10:00 AM 23.1725 -150.1468 63° Northeast  Level FlightAware Approximate
Sun 05:11:00 AM 23.2338 -150.0173 63° Northeast  Level FlightAware Approximate
Sun 05:12:00 AM 23.2951 -149.8878 63° Northeast  Level FlightAware Approximate
Sun 05:13:00 AM 23.3563 -149.7581 63° Northeast  Level FlightAware Approximate
Sun 05:14:00 AM 23.4174 -149.6283 63° Northeast  Level FlightAware Approximate
Sun 05:15:00 AM 23.4783 -149.4984 63° Northeast  Level FlightAware Approximate
Sun 05:16:00 AM 23.5392 -149.3683 63° Northeast  Level FlightAware Approximate
Sun 05:17:00 AM 23.5999 -149.2382 63° Northeast  Level FlightAware Approximate
Sun 05:18:00 AM 23.6605 -149.1079 63° Northeast  Level FlightAware Approximate
Sun 05:19:00 AM 23.7211 -148.9775 63° Northeast  Level FlightAware Approximate
Sun 05:20:00 AM 23.7815 -148.8470 63° Northeast  Level FlightAware Approximate
Sun 05:21:00 AM 23.8418 -148.7163 63° Northeast  Level FlightAware Approximate
Sun 05:22:00 AM 23.9020 -148.5855 63° Northeast  Level FlightAware Approximate
Sun 05:23:00 AM 23.9620 -148.4546 63° Northeast  Level FlightAware Approximate
Sun 05:24:00 AM 24.0220 -148.3236 63° Northeast  Level FlightAware Approximate
Sun 05:25:00 AM 24.0819 -148.1925 63° Northeast  Level FlightAware Approximate
Sun 05:26:00 AM 24.1416 -148.0612 63° Northeast  Level FlightAware Approximate
Sun 05:27:00 AM 24.2013 -147.9299 64° Northeast  Level FlightAware Approximate
Sun 05:28:00 AM 24.2608 -147.7984 64° Northeast  Level FlightAware Approximate
Sun 05:29:00 AM 24.3202 -147.6667 64° Northeast  Level FlightAware Approximate
Sun 05:30:00 AM 24.3795 -147.5350 64° Northeast  Level FlightAware Approximate
Sun 05:31:00 AM 24.4387 -147.4031 64° Northeast  Level FlightAware Approximate
Sun 05:32:00 AM 24.4978 -147.2711 64° Northeast  Level FlightAware Approximate
Sun 05:33:00 AM 24.5567 -147.1390 64° Northeast  Level FlightAware Approximate
Sun 05:34:00 AM 24.6152 -147.0065 64° Northeast  Level FlightAware Approximate
Sun 05:35:00 AM 24.6734 -146.8739 64° Northeast  Level FlightAware Approximate
Sun 05:36:00 AM 24.7315 -146.7411 64° Northeast  Level FlightAware Approximate
Sun 05:37:00 AM 24.7895 -146.6083 64° Northeast  Level FlightAware Approximate
Sun 05:38:00 AM 24.8474 -146.4753 64° Northeast  Level FlightAware Approximate
Sun 05:39:00 AM 24.9052 -146.3422 64° Northeast  Level FlightAware Approximate
Sun 05:40:00 AM 24.9628 -146.2089 64° Northeast  Level FlightAware Approximate
Sun 05:41:00 AM 25.0204 -146.0755 65° Northeast  Level FlightAware Approximate
Sun 05:42:00 AM 25.0778 -145.9420 65° Northeast  Level FlightAware Approximate
Sun 05:43:00 AM 25.1351 -145.8084 65° Northeast  Level FlightAware Approximate
Sun 05:44:00 AM 25.1923 -145.6747 65° Northeast  Level FlightAware Approximate
Sun 05:45:00 AM 25.2493 -145.5408 65° Northeast  Level FlightAware Approximate
Sun 05:46:00 AM 25.3065 -145.4069 65° Northeast  Level FlightAware Approximate
Sun 05:47:00 AM 25.3637 -145.2730 65° Northeast  Level FlightAware Approximate
Sun 05:48:00 AM 25.4207 -145.1389 65° Northeast  Level FlightAware Approximate
Sun 05:49:00 AM 25.4776 -145.0047 65° Northeast  Level FlightAware Approximate
Sun 05:49:20 AM 25.2833 -145.5167 65° Northeast 488 562 33,000  Level Oakland Oceanic (ODAPS)
Sun 05:50:00 AM 25.5345 -144.8704 65° Northeast  Level FlightAware Approximate
Sun 05:51:00 AM 25.5911 -144.7359 65° Northeast  Level FlightAware Approximate
Sun 05:52:00 AM 25.6477 -144.6014 65° Northeast  Level FlightAware Approximate
Sun 05:53:00 AM 25.7041 -144.4667 65° Northeast  Level FlightAware Approximate
Sun 05:54:00 AM 25.7604 -144.3318 65° Northeast  Level FlightAware Approximate
Sun 05:55:00 AM 25.9704 -143.8787 65° Northeast 488 562 33,000  Level FlightAware Transoceanic
Sun 05:56:00 AM 26.0268 -143.7413 65° Northeast 488 562 33,000  Level FlightAware Transoceanic
Sun 05:57:00 AM 26.0831 -143.6039 66° East 488 562 33,000  Level FlightAware Transoceanic
Sun 05:58:00 AM 26.1393 -143.4662 66° East 488 562 33,000  Level FlightAware Transoceanic
Sun 05:59:00 AM 26.1953 -143.3285 66° East 488 562 33,000  Level FlightAware Transoceanic
Sun 06:00:00 AM 26.2512 -143.1906 66° East 488 562 33,000  Level FlightAware Transoceanic
Sun 06:01:00 AM 26.3070 -143.0526 66° East 488 562 33,000  Level FlightAware Transoceanic
Sun 06:02:00 AM 26.3627 -142.9145 66° East 488 562 33,000  Level FlightAware Transoceanic
Sun 06:03:00 AM 26.4182 -142.7762 66° East 488 562 33,000  Level FlightAware Transoceanic
Sun 06:04:00 AM 26.4735 -142.6378 66° East 488 562 33,000  Level FlightAware Transoceanic
Sun 06:05:00 AM 26.5288 -142.4992 66° East 488 562 33,000  Level FlightAware Transoceanic
Sun 06:06:00 AM 26.5839 -142.3605 66° East 488 562 33,000  Level FlightAware Transoceanic
Sun 06:07:00 AM 26.6389 -142.2217 66° East 488 562 33,000  Level FlightAware Transoceanic
Sun 06:08:00 AM 26.6937 -142.0828 66° East 488 562 33,000  Level FlightAware Transoceanic
Sun 06:09:00 AM 26.7484 -141.9437 66° East 488 562 33,000  Level FlightAware Transoceanic
Sun 06:10:00 AM 26.8030 -141.8045 66° East 488 562 33,000  Level FlightAware Transoceanic
Sun 06:11:00 AM 26.8574 -141.6652 66° East 488 562 33,000  Level FlightAware Transoceanic
Sun 06:12:00 AM 26.9117 -141.5257 66° East 488 562 33,000  Level FlightAware Transoceanic
Sun 06:13:00 AM 26.9658 -141.3861 67° East 488 562 33,000  Level FlightAware Transoceanic
Sun 06:14:00 AM 27.0199 -141.2463 67° East 488 562 33,000  Level FlightAware Transoceanic
Sun 06:15:00 AM 27.0737 -141.1064 67° East 488 562 33,000  Level FlightAware Transoceanic
Sun 06:16:00 AM 27.1275 -140.9664 67° East 488 562 33,000  Level FlightAware Transoceanic
Sun 06:17:00 AM 27.1811 -140.8263 67° East 488 562 33,000  Level FlightAware Transoceanic
Sun 06:18:00 AM 27.2345 -140.6860 67° East 488 562 33,000  Level FlightAware Transoceanic
Sun 06:19:00 AM 27.2879 -140.5456 67° East 488 562 33,000  Level FlightAware Transoceanic
Sun 06:20:00 AM 27.3410 -140.4050 67° East 488 562 33,000  Level FlightAware Transoceanic
Sun 06:21:00 AM 27.3941 -140.2643 67° East 488 562 33,000  Level FlightAware Transoceanic
Sun 06:22:00 AM 27.4470 -140.1235 67° East 488 562 33,000  Level FlightAware Transoceanic
Sun 06:23:00 AM 27.4998 -139.9825 67° East 488 562 33,000  Level FlightAware Transoceanic
Sun 06:24:00 AM 27.5524 -139.8414 67° East 488 562 33,000  Level FlightAware Transoceanic
Sun 06:25:00 AM 27.6048 -139.7002 67° East 488 562 33,000  Level FlightAware Transoceanic
Sun 06:26:00 AM 27.6572 -139.5589 67° East 488 562 33,000  Level FlightAware Transoceanic
Sun 06:27:00 AM 27.7094 -139.4173 67° East 488 562 33,000  Level FlightAware Transoceanic
Sun 06:28:00 AM 27.7614 -139.2757 67° East 488 562 33,000  Level FlightAware Transoceanic
Sun 06:29:00 AM 27.8133 -139.1340 68° East 488 562 33,000  Level FlightAware Transoceanic
Sun 06:30:00 AM 27.8651 -138.9920 68° East 488 562 33,000  Level FlightAware Transoceanic
Sun 06:31:00 AM 27.9167 -138.8500 68° East 488 562 33,000  Level FlightAware Transoceanic
Sun 06:32:00 AM 27.9667 -138.7117 68° East 488 562 33,000  Level FlightAware Transoceanic
Sun 06:33:00 AM 28.0166 -138.5733 68° East 488 562 33,000  Level FlightAware Transoceanic
Sun 06:33:24 AM 27.9167 -138.8500 68° East 485 558 33,000  Level Oakland Oceanic (ODAPS)
Sun 06:34:00 AM 28.0664 -138.4347 68° East 488 562 33,000  Level FlightAware Transoceanic
Sun 06:35:00 AM 28.1160 -138.2960 68° East 488 562 33,000  Level FlightAware Transoceanic
Sun 06:36:00 AM 28.1655 -138.1572 68° East 488 562 33,000  Level FlightAware Transoceanic
Sun 06:37:00 AM 28.2148 -138.0183 68° East 488 562 33,000  Level FlightAware Transoceanic
Sun 06:38:00 AM 28.2640 -137.8792 68° East 488 562 33,000  Level FlightAware Transoceanic
Sun 06:39:00 AM 28.3708 -137.5756 68° East 485 558 33,000  Level FlightAware Transoceanic
Sun 06:40:00 AM 28.4205 -137.4333 68° East 485 558 33,000  Level FlightAware Transoceanic
Sun 06:41:00 AM 28.4701 -137.2909 68° East 485 558 33,000  Level FlightAware Transoceanic
Sun 06:42:00 AM 28.5195 -137.1483 69° East 485 558 33,000  Level FlightAware Transoceanic
Sun 06:43:00 AM 28.5688 -137.0057 69° East 485 558 33,000  Level FlightAware Transoceanic
Sun 06:44:00 AM 28.6179 -136.8629 69° East 485 558 33,000  Level FlightAware Transoceanic
Sun 06:45:00 AM 28.6669 -136.7199 69° East 485 558 33,000  Level FlightAware Transoceanic
Sun 06:46:00 AM 28.7157 -136.5769 69° East 485 558 33,000  Level FlightAware Transoceanic
Sun 06:47:00 AM 28.7644 -136.4337 69° East 485 558 33,000  Level FlightAware Transoceanic
Sun 06:48:00 AM 28.8129 -136.2903 69° East 485 558 33,000  Level FlightAware Transoceanic
Sun 06:49:00 AM 28.8613 -136.1468 69° East 485 558 33,000  Level FlightAware Transoceanic
Sun 06:50:00 AM 28.9095 -136.0032 69° East 485 558 33,000  Level FlightAware Transoceanic
Sun 06:51:00 AM 28.9576 -135.8595 69° East 485 558 33,000  Level FlightAware Transoceanic
Sun 06:52:00 AM 29.0055 -135.7156 69° East 485 558 33,000  Level FlightAware Transoceanic
Sun 06:53:00 AM 29.0533 -135.5716 69° East 485 558 33,000  Level FlightAware Transoceanic
Sun 06:54:00 AM 29.1009 -135.4275 69° East 485 558 33,000  Level FlightAware Transoceanic
Sun 06:55:00 AM 29.1483 -135.2832 69° East 485 558 33,000  Level FlightAware Transoceanic
Sun 06:56:00 AM 29.1956 -135.1388 69° East 485 558 33,000  Level FlightAware Transoceanic
Sun 06:57:00 AM 29.2428 -134.9943 70° East 485 558 33,000  Level FlightAware Transoceanic
Sun 06:58:00 AM 29.2898 -134.8496 70° East 485 558 33,000  Level FlightAware Transoceanic
Sun 06:59:00 AM 29.3366 -134.7048 70° East 485 558 33,000  Level FlightAware Transoceanic
Sun 07:00:00 AM 29.3833 -134.5598 70° East 485 558 33,000  Level FlightAware Transoceanic
Sun 07:01:00 AM 29.4298 -134.4148 70° East 485 558 33,000  Level FlightAware Transoceanic
Sun 07:02:00 AM 29.4762 -134.2696 70° East 485 558 33,000  Level FlightAware Transoceanic
Sun 07:03:00 AM 29.5224 -134.1242 70° East 485 558 33,000  Level FlightAware Transoceanic
Sun 07:04:00 AM 29.5684 -133.9788 70° East 485 558 33,000  Level FlightAware Transoceanic
Sun 07:05:00 AM 29.6143 -133.8332 70° East 485 558 33,000  Level FlightAware Transoceanic
Sun 07:06:00 AM 29.6600 -133.6874 70° East 485 558 33,000  Level FlightAware Transoceanic
Sun 07:07:00 AM 29.7056 -133.5416 70° East 485 558 33,000  Level FlightAware Transoceanic
Sun 07:08:00 AM 29.7510 -133.3956 70° East 485 558 33,000  Level FlightAware Transoceanic
Sun 07:09:00 AM 29.7963 -133.2495 70° East 485 558 33,000  Level FlightAware Transoceanic
Sun 07:10:00 AM 29.8414 -133.1032 70° East 485 558 33,000  Level FlightAware Transoceanic
Sun 07:11:00 AM 29.8863 -132.9568 71° East 485 558 33,000  Level FlightAware Transoceanic
Sun 07:12:00 AM 29.9311 -132.8103 71° East 485 558 33,000  Level FlightAware Transoceanic
Sun 07:13:00 AM 29.9757 -132.6636 71° East 485 558 33,000  Level FlightAware Transoceanic
Sun 07:14:00 AM 30.0201 -132.5168 71° East 485 558 33,000  Level FlightAware Transoceanic
Sun 07:15:00 AM 30.0644 -132.3699 71° East 485 558 33,000  Level FlightAware Transoceanic
Sun 07:16:00 AM 30.1085 -132.2229 71° East 485 558 33,000  Level FlightAware Transoceanic
Sun 07:17:00 AM 30.1525 -132.0757 71° East 485 558 33,000  Level FlightAware Transoceanic
Sun 07:18:00 AM 30.1963 -131.9283 71° East 485 558 33,000  Level FlightAware Transoceanic
Sun 07:19:00 AM 30.2399 -131.7809 71° East 485 558 33,000  Level FlightAware Transoceanic
Sun 07:20:00 AM 30.2833 -131.6333 71° East 485 558 33,000  Level FlightAware Transoceanic
Sun 07:21:00 AM 30.3252 -131.4915 71° East 485 558 33,000  Level FlightAware Transoceanic
Sun 07:22:00 AM 30.3670 -131.3495 71° East 485 558 33,000  Level FlightAware Transoceanic
Sun 07:23:00 AM 30.4085 -131.2074 71° East 485 558 33,000  Level FlightAware Transoceanic
Sun 07:23:05 AM 30.2833 -131.6333 71° East 476 548 33,000  Level Oakland Oceanic (ODAPS)
Sun 07:24:00 AM 30.4500 -131.0652 71° East 485 558 33,000  Level FlightAware Transoceanic
Sun 07:25:00 AM 30.4912 -130.9228 71° East 485 558 33,000  Level FlightAware Transoceanic
Sun 07:26:00 AM 30.5324 -130.7803 72° East 485 558 33,000  Level FlightAware Transoceanic
Sun 07:27:00 AM 30.5733 -130.6378 72° East 485 558 33,000  Level FlightAware Transoceanic
Sun 07:28:00 AM 30.6141 -130.4951 72° East 485 558 33,000  Level FlightAware Transoceanic
Sun 07:29:00 AM 30.6619 -130.3270 72° East 476 548 33,000  Level FlightAware Transoceanic
Sun 07:30:00 AM 30.7032 -130.1812 72° East 476 548 33,000  Level FlightAware Transoceanic
Sun 07:31:00 AM 30.7443 -130.0354 72° East 476 548 33,000  Level FlightAware Transoceanic
Sun 07:32:00 AM 30.7852 -129.8893 72° East 476 548 33,000  Level FlightAware Transoceanic
Sun 07:33:00 AM 30.8260 -129.7432 72° East 476 548 33,000  Level FlightAware Transoceanic
Sun 07:34:00 AM 30.8666 -129.5969 72° East 476 548 33,000  Level FlightAware Transoceanic
Sun 07:35:00 AM 30.9071 -129.4505 72° East 476 548 33,000  Level FlightAware Transoceanic
Sun 07:36:00 AM 30.9473 -129.3040 72° East 476 548 33,000  Level FlightAware Transoceanic
Sun 07:37:00 AM 30.9874 -129.1574 72° East 476 548 33,000  Level FlightAware Transoceanic
Sun 07:38:00 AM 31.0274 -129.0106 72° East 476 548 33,000  Level FlightAware Transoceanic
Sun 07:39:00 AM 31.0672 -128.8637 72° East 476 548 33,000  Level FlightAware Transoceanic
Sun 07:40:00 AM 31.1068 -128.7167 73° East 476 548 33,000  Level FlightAware Transoceanic
Sun 07:41:00 AM 31.1462 -128.5696 73° East 476 548 33,000  Level FlightAware Transoceanic
Sun 07:42:00 AM 31.1855 -128.4223 73° East 476 548 33,000  Level FlightAware Transoceanic
Sun 07:43:00 AM 31.2246 -128.2749 73° East 476 548 33,000  Level FlightAware Transoceanic
Sun 07:44:00 AM 31.2636 -128.1275 73° East 476 548 33,000  Level FlightAware Transoceanic
Sun 07:45:00 AM 31.3023 -127.9798 73° East 476 548 33,000  Level FlightAware Transoceanic
Sun 07:46:00 AM 31.3409 -127.8321 73° East 476 548 33,000  Level FlightAware Transoceanic
Sun 07:47:00 AM 31.3794 -127.6842 73° East 476 548 33,000  Level FlightAware Transoceanic
Sun 07:48:00 AM 31.4176 -127.5362 73° East 476 548 33,000  Level FlightAware Transoceanic
Sun 07:49:00 AM 31.4557 -127.3882 73° East 476 548 33,000  Level FlightAware Transoceanic
Sun 07:50:00 AM 31.4937 -127.2399 73° East 476 548 33,000  Level FlightAware Transoceanic
Sun 07:51:00 AM 31.5314 -127.0916 73° East 476 548 33,000  Level FlightAware Transoceanic
Sun 07:52:00 AM 31.5690 -126.9431 73° East 476 548 33,000  Level FlightAware Transoceanic
Sun 07:53:00 AM 31.6064 -126.7945 74° East 476 548 33,000  Level FlightAware Transoceanic
Sun 07:54:00 AM 31.6437 -126.6459 74° East 476 548 33,000  Level FlightAware Transoceanic
Sun 07:55:00 AM 31.6807 -126.4970 74° East 476 548 33,000  Level FlightAware Transoceanic
Sun 07:56:00 AM 31.7176 -126.3481 74° East 476 548 33,000  Level FlightAware Transoceanic
Sun 07:57:00 AM 31.7543 -126.1990 74° East 476 548 33,000  Level FlightAware Transoceanic
Sun 07:58:00 AM 31.7909 -126.0499 74° East 476 548 33,000  Level FlightAware Transoceanic
Sun 07:59:00 AM 31.8272 -125.9006 74° East 476 548 33,000  Level FlightAware Transoceanic
Sun 08:00:00 AM 31.8634 -125.7512 74° East 476 548 33,000  Level FlightAware Transoceanic
Sun 08:01:00 AM 31.8995 -125.6016 74° East 476 548 33,000  Level FlightAware Transoceanic
Sun 08:02:00 AM 31.9353 -125.4520 74° East 476 548 33,000  Level FlightAware Transoceanic
Sun 08:03:00 AM 31.9710 -125.3022 74° East 476 548 33,000  Level FlightAware Transoceanic
Sun 08:04:00 AM 32.0065 -125.1524 74° East 476 548 33,000  Level FlightAware Transoceanic
Sun 08:05:00 AM 32.0418 -125.0024 75° East 476 548 33,000  Level FlightAware Transoceanic
Sun 08:06:00 AM 32.0770 -124.8523 75° East 476 548 33,000  Level FlightAware Transoceanic
Sun 08:07:00 AM 32.1119 -124.7020 75° East 476 548 33,000  Level FlightAware Transoceanic
Sun 08:08:00 AM 32.1467 -124.5517 75° East 476 548 33,000  Level FlightAware Transoceanic
Sun 08:09:00 AM 32.1813 -124.4012 75° East 476 548 33,000  Level FlightAware Transoceanic
Sun 08:10:00 AM 32.2158 -124.2507 75° East 476 548 33,000  Level FlightAware Transoceanic
Sun 08:11:00 AM 32.2500 -124.1000 77° East 476 548 33,000  Level FlightAware Transoceanic
Sun 08:11:23 AM 32.1419 -124.3236 77° East 459 528 33,000  Level Los Angeles Center
Sun 08:12:00 AM 32.2815 -123.9432 77° East 476 548 33,000  Level FlightAware Transoceanic
Sun 08:12:23 AM 32.1767 -124.1744 75° East 466 536 33,000  Level Los Angeles Center
Sun 08:13:00 AM 32.3129 -123.7862 77° East 476 548 33,000 -98 Level FlightAware Transoceanic
Sun 08:13:24 AM 32.2117 -124.0250 74° East 470 541 32,900  Descending Los Angeles Center
Sun 08:14:00 AM 32.3440 -123.6292 77° East 476 548 33,000 100 Climbing FlightAware Transoceanic
Sun 08:14:24 AM 32.2761 -123.8872 61° Northeast 477 549 33,000  Level Los Angeles Center
Sun 08:15:00 AM 32.3750 -123.4721 77° East 476 548 33,000  Level FlightAware Transoceanic
Sun 08:15:24 AM 32.3517 -123.7614 55° Northeast 475 547 33,000  Level Los Angeles Center
Sun 08:16:00 AM 32.4057 -123.3148 77° East 476 548 33,000  Level FlightAware Transoceanic
Sun 08:16:24 AM 32.4186 -123.6283 59° Northeast 472 543 33,000  Level Los Angeles Center
Sun 08:17:24 AM 32.4811 -123.4889 62° Northeast 477 549 33,000  Level Los Angeles Center
Sun 08:18:24 AM 32.5450 -123.3508 61° Northeast 479 551 33,000  Level Los Angeles Center
Sun 08:19:24 AM 32.6050 -123.2075 64° Northeast 483 556 33,000 -50 Level Los Angeles Center
Sun 08:20:25 AM 32.6728 -123.0728 59° Northeast 481 554 32,900  Descending Los Angeles Center
Sun 08:21:25 AM 32.7353 -122.9331 62° Northeast 481 554 33,000 50 Climbing Los Angeles Center
Sun 08:22:25 AM 32.7942 -122.7881 64° Northeast 485 558 33,000  Level Los Angeles Center
Sun 08:23:25 AM 32.8575 -122.6489 62° Northeast 484 557 33,000  Level Los Angeles Center
Sun 08:24:25 AM 32.9219 -122.5100 61° Northeast 483 556 33,000  Level Los Angeles Center
Sun 08:25:25 AM 32.9839 -122.3681 62° Northeast 484 557 33,000 -50 Level Los Angeles Center
Sun 08:26:26 AM 33.0472 -122.2286 62° Northeast 482 555 32,900 -50 Descending Los Angeles Center
Sun 08:27:26 AM 33.1161 -122.0961 58° Northeast 475 547 32,900 50 Level Los Angeles Center
Sun 08:28:26 AM 33.1769 -121.9536 63° Northeast 482 555 33,000 50 Climbing Los Angeles Center
Sun 08:29:26 AM 33.2389 -121.8103 63° Northeast 487 560 33,000 -50 Level Los Angeles Center
Sun 08:30:26 AM 33.3008 -121.6675 63° Northeast 486 559 32,900  Descending Los Angeles Center
Sun 08:31:26 AM 33.3628 -121.5236 63° Northeast 487 560 33,000 397 Climbing Los Angeles Center
Sun 08:32:27 AM 33.4244 -121.3808 63° Northeast 485 558 33,700 744 Climbing Los Angeles Center
Sun 08:33:27 AM 33.4850 -121.2353 63° Northeast 489 563 34,500 800 Climbing Los Angeles Center
Sun 08:34:27 AM 33.5483 -121.0883 63° Northeast 497 572 35,300 850 Climbing Los Angeles Center
Sun 08:35:27 AM 33.6103 -120.9397 63° Northeast 500 575 36,200 793 Climbing Los Angeles Center
Sun 08:36:28 AM 33.6719 -120.7914 63° Northeast 499 574 36,900 397 Climbing Los Angeles Center
Sun 08:37:28 AM 33.7347 -120.6408 63° Northeast 505 581 37,000 50 Climbing Los Angeles Center
Sun 08:38:28 AM 33.7972 -120.4906 63° Northeast 505 581 37,000 -50 Level Los Angeles Center
Sun 08:39:28 AM 33.8597 -120.3403 63° Northeast 505 581 36,900  Descending Los Angeles Center
Sun 08:40:28 AM 33.9219 -120.1869 64° Northeast 511 588 37,000 41 Climbing Los Angeles Center
Sun 08:41:53 AM 33.9972 -120.0097 63° Northeast 502 578 37,000  Level Los Angeles Center
Sun 08:42:53 AM 34.0708 -119.8261 64° Northeast 508 585 37,000  Level Los Angeles Center
Sun 08:43:53 AM 34.1319 -119.6742 64° Northeast 507 583 37,000  Level Los Angeles Center
Sun 08:44:53 AM 34.1944 -119.5200 64° Northeast 509 586 37,000  Level Los Angeles Center
Sun 08:45:53 AM 34.2572 -119.3656 64° Northeast 511 588 37,000  Level Los Angeles Center
Sun 08:46:54 AM 34.3200 -119.2100 64° Northeast 514 592 37,000  Level Los Angeles Center
Sun 08:47:54 AM 34.3822 -119.0528 64° Northeast 516 594 37,000  Level Los Angeles Center
Sun 08:48:54 AM 34.4436 -118.8972 64° Northeast 513 590 37,000  Level Los Angeles Center
Sun 08:49:54 AM 34.5050 -118.7400 65° Northeast 514 592 37,000  Level Los Angeles Center
Sun 08:50:55 AM 34.5672 -118.5831 64° Northeast 515 593 37,000  Level Los Angeles Center
Sun 08:51:55 AM 34.6281 -118.4269 65° Northeast 514 592 37,000  Level Los Angeles Center
Sun 08:52:55 AM 34.6967 -118.2525 64° Northeast 515 593 37,000  Level Los Angeles Center
Sun 08:53:55 AM 34.7569 -118.0953 65° Northeast 515 593 37,000  Level Los Angeles Center
Sun 08:54:55 AM 34.8169 -117.9383 65° Northeast 516 594 37,000  Level Los Angeles Center
Sun 08:55:56 AM 34.8761 -117.7825 65° Northeast 511 588 37,000  Level Los Angeles Center
Sun 08:56:56 AM 34.9353 -117.6256 65° Northeast 516 594 37,000  Level Los Angeles Center
Sun 08:57:56 AM 34.9928 -117.4717 65° Northeast 516 594 37,000  Level Los Angeles Center
Sun 08:58:56 AM 35.0519 -117.3164 65° Northeast 517 595 37,000  Level Los Angeles Center
Sun 08:59:57 AM 35.1106 -117.1597 65° Northeast 513 590 37,000  Level Los Angeles Center
Sun 09:00:57 AM 35.1689 -117.0025 66° East 511 588 37,000  Level Los Angeles Center
Sun 09:01:57 AM 35.2286 -116.8439 65° Northeast 513 590 37,000  Level Los Angeles Center
Sun 09:02:58 AM 35.2864 -116.6856 66° East 513 590 37,000  Level Los Angeles Center
Sun 09:03:58 AM 35.3444 -116.5264 66° East 512 589 37,000  Level Los Angeles Center
Sun 09:04:58 AM 35.4028 -116.3669 66° East 514 592 37,000  Level Los Angeles Center
Sun 09:05:59 AM 35.4603 -116.2067 66° East 515 593 37,000  Level Los Angeles Center
Sun 09:07:00 AM 35.5086 -116.0512 69° East  Level FlightAware Approximate
Sun 09:07:59 AM 35.5839 -115.8689 69° East 515 593 37,000  Level Los Angeles Center
Sun 09:09:00 AM 35.6414 -115.7136 65° Northeast 506 582 37,000  Level Los Angeles Center
Sun 09:10:00 AM 35.6981 -115.5533 66° East 510 587 37,000  Level Los Angeles Center
Sun 09:11:00 AM 35.7544 -115.3922 67° East 515 593 37,000  Level Los Angeles Center
Sun 09:12:01 AM 35.8119 -115.2322 66° East 516 594 37,000  Level Los Angeles Center
Sun 09:13:01 AM 35.8672 -115.0728 67° East 513 590 37,000  Level Los Angeles Center
Sun 09:14:02 AM 35.9222 -114.9122 67° East 512 589 37,000  Level Los Angeles Center
Sun 09:15:02 AM 35.9897 -114.7206 66° East 511 588 37,000  Level Los Angeles Center
Sun 09:16:02 AM 36.0444 -114.5597 67° East 510 587 37,000  Level Los Angeles Center
Sun 09:17:03 AM 36.0989 -114.3992 67° East 510 587 37,000  Level Los Angeles Center
Sun 09:18:03 AM 36.1544 -114.2375 67° East 511 588 37,000  Level Los Angeles Center
Sun 09:19:04 AM 36.2092 -114.0764 67° East 510 587 37,000  Level Los Angeles Center
Sun 09:20:04 AM 36.2636 -113.9144 67° East 510 587 37,000  Level Los Angeles Center
Sun 09:21:05 AM 36.3167 -113.7533 68° East 509 586 37,000  Level Los Angeles Center
Sun 09:22:05 AM 36.3711 -113.5914 67° East 509 586 37,000  Level Los Angeles Center
Sun 09:23:06 AM 36.4150 -113.4622 67° East 509 586 37,000  Level Los Angeles Center
Sun 09:24:07 AM 36.4794 -113.2678 68° East 508 585 37,000  Level Los Angeles Center
Sun 09:25:07 AM 36.5344 -113.0997 68° East 509 586 37,000  Level Los Angeles Center
Sun 09:26:08 AM 36.5869 -112.9367 68° East 509 586 37,000  Level Los Angeles Center
Sun 09:27:08 AM 36.6403 -112.7747 68° East 510 587 37,000  Level Los Angeles Center
Sun 09:28:09 AM 36.6936 -112.6119 68° East 510 587 37,000  Level Los Angeles Center
Sun 09:29:09 AM 36.7464 -112.4486 68° East 510 587 37,000  Level Los Angeles Center
Sun 09:30:10 AM 36.7992 -112.2856 68° East 511 588 37,000  Level Los Angeles Center
Sun 09:31:11 AM 36.8519 -112.1219 68° East 511 588 37,000  Level Los Angeles Center
Sun 09:31:51 AM 36.8925 -111.9914 69° East 511 588 37,000  Level Denver Center
Sun 09:32:51 AM 36.9453 -111.8275 68° East 512 589 37,000  Level Denver Center
Sun 09:33:52 AM 36.9978 -111.6625 68° East 513 590 37,000  Level Denver Center
Sun 09:34:53 AM 37.0489 -111.4986 69° East 511 588 37,000  Level Denver Center
Sun 09:35:53 AM 37.0975 -111.3356 69° East 506 582 37,000  Level Denver Center
Sun 09:36:54 AM 37.1472 -111.1703 69° East 508 585 37,000  Level Denver Center
Sun 09:37:55 AM 37.1986 -111.0058 69° East 508 585 37,000  Level Denver Center
Sun 09:39:08 AM 37.2586 -110.8094 69° East 504 580 37,000  Level Denver Center
Sun 09:40:09 AM 37.3197 -110.6517 64° Northeast 504 580 37,000  Level Denver Center
Sun 09:41:09 AM 37.3850 -110.4978 62° Northeast 501 577 37,000  Level Denver Center
Sun 09:42:10 AM 37.4519 -110.3439 61° Northeast 502 578 37,000  Level Denver Center
Sun 09:43:11 AM 37.5250 -110.1731 62° Northeast 504 580 37,000  Level Denver Center
Sun 09:44:12 AM 37.5889 -110.0244 61° Northeast 502 578 37,000  Level Denver Center
Sun 09:45:13 AM 37.6622 -109.8500 62° Northeast 501 577 37,000  Level Denver Center
Sun 09:46:14 AM 37.7258 -109.7006 62° Northeast 504 580 37,000  Level Denver Center
Sun 09:47:14 AM 37.7886 -109.5528 62° Northeast 499 574 37,000  Level Denver Center
Sun 09:48:15 AM 37.8606 -109.3811 62° Northeast 495 570 37,000  Level Denver Center
Sun 09:49:16 AM 37.9219 -109.2353 62° Northeast 491 565 37,000  Level Denver Center
Sun 09:50:17 AM 37.9831 -109.0864 62° Northeast 495 570 37,000  Level Denver Center
Sun 09:51:18 AM 38.0556 -108.9161 62° Northeast 492 566 37,000  Level Denver Center
Sun 09:52:19 AM 38.1197 -108.7536 63° Northeast 498 573 37,000  Level Denver Center
Sun 09:53:20 AM 38.1814 -108.6064 62° Northeast 494 568 37,000  Level Denver Center
Sun 09:54:21 AM 38.2425 -108.4581 62° Northeast 496 571 37,000  Level Denver Center
Sun 09:55:22 AM 38.3131 -108.2847 63° Northeast 495 570 37,000  Level Denver Center
Sun 09:56:23 AM 38.3742 -108.1350 62° Northeast 498 573 37,000  Level Denver Center
Sun 09:57:24 AM 38.4428 -107.9614 63° Northeast 495 570 37,000  Level Denver Center
Sun 09:58:25 AM 38.5039 -107.8119 62° Northeast 497 572 37,000  Level Denver Center
Sun 09:59:27 AM 38.5631 -107.6603 63° Northeast 500 575 37,000  Level Denver Center
Sun 10:00:28 AM 38.6328 -107.4856 63° Northeast 497 572 37,000  Level Denver Center
Sun 10:01:30 AM 38.6917 -107.3344 63° Northeast 496 571 37,000 -293 Level Denver Center
Sun 10:02:31 AM 38.7528 -107.1781 63° Northeast 497 572 36,400 -836 Descending Denver Center
Sun 10:03:32 AM 38.8142 -107.0197 64° Northeast 496 571 35,300 -1,131 Descending Denver Center
Sun 10:04:33 AM 38.8758 -106.8606 64° Northeast 499 574 34,100 -1,475 Descending Denver Center
Sun 10:05:34 AM 38.9469 -106.6758 64° Northeast 499 574 32,300 -1,415 Descending Denver Center
Sun 10:06:36 AM 39.0064 -106.5192 64° Northeast 509 586 31,200 -976 Descending Denver Center
Sun 10:07:37 AM 39.0742 -106.3389 64° Northeast 502 578 30,300 -787 Descending Denver Center
Sun 10:08:38 AM 39.1339 -106.1861 63° Northeast 499 574 29,600 -1,415 Descending Denver Center
Sun 10:09:40 AM 39.1914 -106.0275 65° Northeast 483 556 27,400 -2,049 Descending Denver Center
Sun 10:10:41 AM 39.2481 -105.8772 64° Northeast 465 535 25,400 -1,902 Descending Denver Center
Sun 10:11:43 AM 39.3017 -105.7336 64° Northeast 443 510 23,500 -1,854 Descending Denver Center
Sun 10:12:44 AM 39.3539 -105.5933 64° Northeast 433 498 21,600 -1,268 Descending Denver Center
Sun 10:13:46 AM 39.4078 -105.4572 63° Northeast 412 474 20,900 -878 Descending Denver Center
Sun 10:14:47 AM 39.4658 -105.3492 55° Northeast 355 409 19,800 -1,122 Descending Denver Center
Sun 10:15:49 AM 39.5206 -105.2378 57° Northeast 336 387 18,600 -1,073 Descending Denver Center
Sun 10:16:50 AM 39.5714 -105.1417 56° Northeast 325 374 17,600 -1,317 Descending Denver Center
Sun 10:17:52 AM 39.6225 -105.0383 57° Northeast 318 366 15,900 -1,610 Descending Denver Center
Sun 10:18:53 AM 39.6703 -104.9450 56° Northeast 312 359 14,300 -1,415 Descending Denver Center
Sun 10:19:55 AM 39.7169 -104.8522 57° Northeast 304 350 13,000 -1,268 Descending Denver Center
Sun 10:20:56 AM 39.7647 -104.7489 59° Northeast 311 358 11,700 -976 Descending Denver Center
Sun 10:21:58 AM 39.7675 -104.6472 88° East 279 321 11,000 -341 Descending Denver Center
Sun 10:22:59 AM 39.7700 -104.5536 88° East 265 305 11,000 -439 Level Denver Center
Sun 10:24:01 AM 39.7733 -104.4567 87° East 253 291 10,100 -823 Descending Denver Center
Sun 10:25:03 AM 39.8069 -104.3961 54° Northeast 240 276 9,300 -774 Descending Denver Center

Login

Don't have an account? Register now (free) for customized features, flight alerts, and more!